Time;durP1;ratioP1;P1;durP2;ratioP2;P2;SDS_P1;SDS_P2;PMS_P1;PMS_P2;Temp;Humidity;BMP_temperature;BMP_pressure;BME280_temperature;BME280_humidity;BME280_pressure;Samples;Min_cycle;Max_cycle;Signal;HPM_P1;HPM_P2
2021/12/11 00:00:36;;;;;;;;;4.00;4.00;;;;;8.74;57.30;100494.78;2063214;28;48452;-62
2021/12/11 00:01:47;;;;;;;;;5.00;5.00;;;;;8.75;57.23;100503.56;2054612;28;47098;-63
2021/12/11 00:03:07;;;;;;;;;8.75;6.00;;;;;8.76;57.29;100498.25;2055936;28;48805;-63
2021/12/11 00:04:13;;;;;;;;;3.25;3.25;;;;;8.75;57.32;100500.94;2057724;28;47929;-62
2021/12/11 00:05:15;;;;;;;;;3.75;3.75;;;;;8.74;57.31;100502.72;2060440;28;48115;-62
2021/12/11 00:06:33;;;;;;;;;5.00;3.50;;;;;8.74;57.30;100502.72;2063334;28;48193;-62
2021/12/11 00:07:34;;;;;;;;;4.75;4.25;;;;;8.74;57.37;100507.13;2063375;28;48607;-63
2021/12/11 00:08:35;;;;;;;;;4.00;4.00;;;;;8.74;57.53;100504.47;2063818;28;45509;-62
2021/12/11 00:09:42;;;;;;;;;5.00;5.00;;;;;8.74;57.40;100512.41;2059441;28;47182;-62
2021/12/11 00:10:49;;;;;;;;;3.75;3.75;;;;;8.74;57.47;100512.41;2061040;28;47409;-62
2021/12/11 00:12:02;;;;;;;;;5.25;5.25;;;;;8.74;57.39;100518.59;2061100;28;48494;-61
2021/12/11 00:13:07;;;;;;;;;4.75;4.75;;;;;8.74;57.52;100523.88;2062827;28;48378;-62
2021/12/11 00:14:10;;;;;;;;;4.00;4.00;;;;;8.74;57.49;100526.53;2061775;28;47365;-63
2021/12/11 00:15:18;;;;;;;;;5.00;5.00;;;;;8.73;57.38;100523.91;2062346;28;47561;-63
2021/12/11 00:16:22;;;;;;;;;4.00;4.00;;;;;8.73;57.36;100526.56;2063351;28;48206;-63
2021/12/11 00:17:29;;;;;;;;;2.50;2.00;;;;;8.74;57.23;100530.94;2063260;28;48445;-63
2021/12/11 00:18:30;;;;;;;;;8.25;5.75;;;;;8.71;57.51;100529.22;2063266;28;47361;-62
2021/12/11 00:19:33;;;;;;;;;3.75;3.75;;;;;8.71;57.52;100533.66;2061662;28;48183;-63
2021/12/11 00:20:42;;;;;;;;;4.75;4.75;;;;;8.72;57.60;100532.75;2062655;28;47583;-63
2021/12/11 00:21:44;;;;;;;;;6.00;6.00;;;;;8.72;57.60;100532.75;2061442;28;47343;-62
2021/12/11 00:22:44;;;;;;;;;3.00;3.00;;;;;8.71;57.54;100533.66;2063123;28;47533;-63
2021/12/11 00:23:51;;;;;;;;;7.33;4.67;;;;;8.71;57.44;100536.28;2062713;28;47369;-63
2021/12/11 00:24:57;;;;;;;;;6.75;5.00;;;;;8.70;57.60;100535.41;2062043;28;48021;-62
2021/12/11 00:25:59;;;;;;;;;5.00;5.00;;;;;8.70;57.57;100551.28;2063196;28;47252;-62
2021/12/11 00:27:04;;;;;;;;;5.50;4.50;;;;;8.71;57.53;100549.53;2063333;28;47406;-62
2021/12/11 00:28:06;;;;;;;;;4.00;3.00;;;;;8.70;57.58;100546.00;2063315;28;48189;-62
2021/12/11 00:29:09;;;;;;;;;4.00;4.00;;;;;8.71;57.35;100555.69;2062415;28;47026;-63
2021/12/11 00:30:21;;;;;;;;;4.25;3.75;;;;;8.72;57.46;100545.97;2059534;28;47781;-62
2021/12/11 00:31:23;;;;;;;;;4.50;4.50;;;;;8.71;57.65;100545.09;2063461;28;48223;-61
2021/12/11 00:32:27;;;;;;;;;6.00;6.00;;;;;8.73;57.75;100542.41;2054565;28;47011;-63
2021/12/11 00:33:33;;;;;;;;;6.75;6.00;;;;;8.71;57.54;100547.75;2055180;28;48111;-63
2021/12/11 00:34:35;;;;;;;;;5.00;4.75;;;;;8.72;57.63;100552.13;2060667;28;48265;-62
2021/12/11 00:35:37;;;;;;;;;10.50;7.00;;;;;8.73;57.62;100558.31;2063046;28;48096;-62
2021/12/11 00:36:37;;;;;;;;;4.50;4.00;;;;;8.73;57.82;100558.31;2063454;28;47214;-62
2021/12/11 00:37:38;;;;;;;;;6.00;5.33;;;;;8.73;57.57;100553.00;2063063;28;47671;-61
2021/12/11 00:38:40;;;;;;;;;5.00;5.00;;;;;8.74;57.71;100560.91;2063380;28;47117;-62
2021/12/11 00:39:57;;;;;;;;;4.50;4.50;;;;;8.73;57.75;100553.00;2056237;28;47474;-62
2021/12/11 00:40:58;;;;;;;;;5.75;4.25;;;;;8.74;57.83;100565.34;2063798;28;48225;-62
2021/12/11 00:42:07;;;;;;;;;4.00;4.00;;;;;8.72;57.66;100573.31;2064686;28;47446;-62
2021/12/11 00:43:15;;;;;;;;;5.25;5.25;;;;;8.72;57.66;100561.84;2065029;28;47554;-63
2021/12/11 00:44:15;;;;;;;;;6.50;6.00;;;;;8.72;57.67;100578.59;2062493;28;47110;-63
2021/12/11 00:45:20;;;;;;;;;3.67;3.33;;;;;8.71;57.49;100571.56;2061107;28;47299;-62
2021/12/11 00:46:29;;;;;;;;;6.75;4.75;;;;;8.71;57.82;100574.19;2062534;28;47419;-62
2021/12/11 00:47:32;;;;;;;;;5.00;5.00;;;;;8.71;57.70;100575.97;2064880;28;47242;-62
2021/12/11 00:48:33;;;;;;;;;6.75;6.00;;;;;8.71;57.80;100583.91;2063868;28;48154;-61
2021/12/11 00:49:33;;;;;;;;;7.33;7.33;;;;;8.70;57.89;100576.88;2059707;28;47359;-61
2021/12/11 00:50:38;;;;;;;;;4.00;4.00;;;;;8.70;57.65;100584.81;2063089;28;47148;-62
2021/12/11 00:51:39;;;;;;;;;3.50;3.50;;;;;8.69;57.85;100583.94;2064551;28;47809;-62
2021/12/11 00:53:15;;;;;;;;;4.75;4.00;;;;;8.68;57.75;100595.41;2063295;28;47288;-62
2021/12/11 00:54:16;;;;;;;;;4.75;4.00;;;;;8.69;57.36;100591.00;2061674;28;47524;-62
2021/12/11 00:55:27;;;;;;;;;6.00;4.00;;;;;8.68;57.82;100586.63;2055698;28;47191;-62
2021/12/11 00:56:38;;;;;;;;;3.50;2.75;;;;;8.68;57.78;100592.78;2056619;28;46469;-62
2021/12/11 00:57:38;;;;;;;;;2.50;2.50;;;;;8.67;57.85;100595.44;2058477;28;47128;-63
2021/12/11 00:58:41;;;;;;;;;4.00;4.00;;;;;8.67;57.68;100593.69;2064898;28;46984;-68
2021/12/11 00:59:42;;;;;;;;;3.75;3.00;;;;;8.68;57.84;100594.56;2063409;28;47966;-62
2021/12/11 01:00:59;;;;;;;;;4.67;4.67;;;;;8.67;57.72;100603.38;2064237;28;47748;-62
2021/12/11 01:02:01;;;;;;;;;5.75;3.25;;;;;8.65;57.73;100599.91;2061182;28;48526;-63
2021/12/11 01:03:01;;;;;;;;;3.75;2.25;;;;;8.66;57.74;100601.66;2055873;28;47921;-61
2021/12/11 01:04:37;;;;;;;;;3.67;3.00;;;;;8.66;57.92;100604.28;2054785;28;47036;-62
2021/12/11 01:05:42;;;;;;;;;4.00;3.25;;;;;8.65;57.87;100610.47;2064405;28;47538;-62
2021/12/11 01:06:52;;;;;;;;;4.50;4.50;;;;;8.65;58.19;100605.19;2064484;28;47314;-62
2021/12/11 01:07:53;;;;;;;;;5.75;5.00;;;;;8.64;57.94;100612.25;2064428;28;47361;-61
2021/12/11 01:08:59;;;;;;;;;3.00;3.00;;;;;8.66;57.74;100623.69;2063441;28;46971;-63
2021/12/11 01:10:25;;;;;;;;;6.00;4.75;;;;;8.65;57.84;100618.41;2062606;28;48313;-62
2021/12/11 01:11:47;;;;;;;;;3.00;3.00;;;;;8.65;57.76;100618.41;2059273;28;47911;-62
2021/12/11 01:12:56;;;;;;;;;4.00;3.00;;;;;8.65;57.91;100623.72;2064009;28;48482;-62
2021/12/11 01:14:16;;;;;;;;;4.00;2.75;;;;;8.63;57.90;100623.69;2062402;28;47407;-61
2021/12/11 01:15:24;;;;;;;;;5.50;4.25;;;;;8.64;57.79;100627.22;2064652;28;48343;-62
2021/12/11 01:16:25;;;;;;;;;3.75;3.00;;;;;8.63;57.98;100630.75;2064283;28;47337;-62
2021/12/11 01:17:43;;;;;;;;;4.33;2.67;;;;;8.62;57.67;100621.94;2064576;28;47514;-62
2021/12/11 01:18:47;;;;;;;;;3.00;3.00;;;;;8.62;57.91;100636.94;2058461;28;47237;-63
2021/12/11 01:19:52;;;;;;;;;3.00;3.00;;;;;8.60;57.84;100634.34;2062601;28;48201;-63
2021/12/11 01:22:35;;;;;;;;;3.50;3.50;;;;;8.61;58.07;100637.84;2063093;28;47205;-64
2021/12/11 01:24:44;;;;;;;;;2.00;2.00;;;;;8.59;58.01;100645.81;2062908;28;48511;-63
2021/12/11 01:25:45;;;;;;;;;4.75;3.75;;;;;8.59;57.99;100653.75;2064102;28;48604;-62
2021/12/11 01:26:51;;;;;;;;;4.33;4.33;;;;;8.59;58.11;100648.47;2063315;28;48174;-63
2021/12/11 01:27:56;;;;;;;;;2.75;2.00;;;;;8.59;58.02;100651.09;2064386;28;47105;-63
2021/12/11 01:28:56;;;;;;;;;4.00;3.50;;;;;8.60;58.02;100657.28;2063616;28;46039;-62
2021/12/11 01:29:58;;;;;;;;;5.00;4.00;;;;;8.59;57.86;100661.69;2061100;28;46162;-62
2021/12/11 01:31:01;;;;;;;;;3.50;3.50;;;;;8.60;57.98;100659.91;2064752;28;47515;-61
2021/12/11 01:32:03;;;;;;;;;4.00;2.00;;;;;8.59;57.96;100653.75;2055579;28;47704;-62
2021/12/11 01:33:05;;;;;;;;;3.00;2.00;;;;;8.60;57.91;100662.56;2054639;28;46507;-62
2021/12/11 01:34:08;;;;;;;;;3.75;3.75;;;;;8.60;58.04;100662.56;2062396;28;48310;-63
2021/12/11 01:35:10;;;;;;;;;2.25;2.25;;;;;8.60;58.09;100663.44;2062692;28;48262;-63
2021/12/11 01:36:12;;;;;;;;;2.75;2.00;;;;;8.59;58.15;100659.03;2064353;28;47295;-62
2021/12/11 01:37:15;;;;;;;;;2.50;2.50;;;;;8.59;58.32;100666.97;2062887;28;47567;-61
2021/12/11 01:38:22;;;;;;;;;2.50;2.50;;;;;8.59;58.09;100666.97;2064022;28;47365;-62
2021/12/11 01:39:27;;;;;;;;;2.00;2.00;;;;;8.59;58.11;100669.63;2061995;28;47946;-62
2021/12/11 01:40:31;;;;;;;;;4.25;3.00;;;;;8.60;58.07;100671.38;2060625;28;47476;-62
2021/12/11 01:41:32;;;;;;;;;3.00;3.00;;;;;8.60;58.01;100673.13;2064712;28;47053;-63
2021/12/11 01:42:34;;;;;;;;;4.00;3.00;;;;;8.60;58.01;100673.13;2064530;28;47443;-62
2021/12/11 01:43:38;;;;;;;;;3.50;3.50;;;;;8.59;57.55;100672.25;2064466;28;47639;-63
2021/12/11 01:44:40;;;;;;;;;3.50;3.50;;;;;8.59;58.07;100676.69;2055217;28;47206;-62
2021/12/11 01:45:51;;;;;;;;;2.00;1.00;;;;;8.59;58.13;100684.63;2055644;28;45995;-62
2021/12/11 01:47:03;;;;;;;;;4.75;4.00;;;;;8.60;58.11;100687.25;2058591;28;47168;-63
2021/12/11 01:48:04;;;;;;;;;4.00;2.50;;;;;8.60;58.09;100694.31;2064014;28;47961;-62
2021/12/11 01:49:12;;;;;;;;;3.67;2.00;;;;;8.59;58.14;100690.78;2062587;28;47775;-62
2021/12/11 01:50:22;;;;;;;;;4.00;2.75;;;;;8.59;57.97;100693.44;2059678;28;47965;-63
2021/12/11 01:51:32;;;;;;;;;3.75;2.25;;;;;8.59;58.04;100696.06;2064168;28;45396;-62
2021/12/11 01:52:48;;;;;;;;;3.25;3.25;;;;;8.58;58.13;100701.38;2063725;28;48289;-62
2021/12/11 01:53:56;;;;;;;;;3.75;3.75;;;;;8.58;58.02;100696.97;2063248;28;47842;-62
2021/12/11 01:54:58;;;;;;;;;2.25;2.25;;;;;8.58;58.11;100693.44;2062765;28;48206;-63
2021/12/11 01:56:16;;;;;;;;;4.25;3.25;;;;;8.58;58.24;100690.81;2057521;28;47259;-63
2021/12/11 01:57:22;;;;;;;;;2.75;2.75;;;;;8.58;57.93;100693.44;2064613;28;48081;-62
2021/12/11 01:58:30;;;;;;;;;2.00;2.00;;;;;8.57;58.11;100691.72;2064036;28;48531;-63
2021/12/11 01:59:34;;;;;;;;;5.00;4.00;;;;;8.57;58.31;100689.94;2062666;28;47325;-63
2021/12/11 02:00:48;;;;;;;;;3.50;3.00;;;;;8.57;58.09;100695.22;2063819;28;48586;-62
2021/12/11 02:02:04;;;;;;;;;3.00;3.00;;;;;8.57;58.52;100697.88;2064312;28;49303;-62
2021/12/11 02:03:11;;;;;;;;;3.50;3.50;;;;;8.57;58.37;100702.28;2064236;28;48142;-61
2021/12/11 02:04:14;;;;;;;;;1.67;1.67;;;;;8.55;58.07;100700.53;2063257;28;48195;-62
2021/12/11 02:05:21;;;;;;;;;3.75;2.75;;;;;8.57;58.25;100704.94;2061245;28;47165;-62
2021/12/11 02:06:27;;;;;;;;;3.00;3.00;;;;;8.57;58.18;100707.56;2064105;28;47647;-63
2021/12/11 02:07:35;;;;;;;;;3.00;3.00;;;;;8.56;58.32;100706.69;2064073;28;46319;-62
2021/12/11 02:08:39;;;;;;;;;2.00;2.00;;;;;8.55;58.18;100707.59;2064560;28;48080;-62
2021/12/11 02:09:44;;;;;;;;;3.00;3.00;;;;;8.55;58.38;100712.91;2060220;28;48281;-62
2021/12/11 02:10:56;;;;;;;;;5.25;4.00;;;;;8.53;58.24;100715.56;2062582;28;47719;-61
2021/12/11 02:12:24;;;;;;;;;2.00;2.00;;;;;8.54;58.32;100717.31;2061806;28;47182;-62
2021/12/11 02:13:41;;;;;;;;;3.25;3.25;;;;;8.54;58.13;100719.94;2063117;28;47547;-62
2021/12/11 02:14:48;;;;;;;;;5.50;4.00;;;;;8.53;58.26;100715.56;2061703;28;46439;-62
2021/12/11 02:15:52;;;;;;;;;2.25;2.25;;;;;8.54;58.35;100719.09;2060812;28;47308;-62
2021/12/11 02:16:54;;;;;;;;;3.00;3.00;;;;;8.53;58.28;100718.22;2055259;28;47119;-63
2021/12/11 02:18:14;;;;;;;;;3.00;3.00;;;;;8.53;58.38;100723.50;2055433;28;47613;-63
2021/12/11 02:19:30;;;;;;;;;2.75;2.75;;;;;8.53;58.39;100733.19;2061406;28;47326;-63
2021/12/11 02:20:37;;;;;;;;;3.25;2.75;;;;;8.51;58.20;100730.59;2062752;28;47324;-63
2021/12/11 02:21:54;;;;;;;;;4.00;4.00;;;;;8.52;58.18;100731.44;2063497;28;47726;-64
2021/12/11 02:22:55;;;;;;;;;3.50;2.25;;;;;8.51;58.32;100738.50;2062666;28;46275;-62
2021/12/11 02:23:58;;;;;;;;;4.00;3.25;;;;;8.51;58.44;100735.88;2062333;28;47455;-62
2021/12/11 02:25:03;;;;;;;;;4.00;4.00;;;;;8.50;58.34;100741.16;2063552;28;47518;-63
2021/12/11 02:26:14;;;;;;;;;3.75;3.75;;;;;8.50;58.40;100734.09;2063294;28;47383;-63
2021/12/11 02:27:26;;;;;;;;;4.50;4.50;;;;;8.50;58.47;100742.03;2063374;28;48241;-63
2021/12/11 02:28:26;;;;;;;;;3.50;3.00;;;;;8.49;58.54;100735.00;2055237;28;46910;-62
2021/12/11 02:29:34;;;;;;;;;5.00;3.00;;;;;8.50;58.46;100741.16;2053234;28;47098;-62
2021/12/11 02:30:46;;;;;;;;;4.00;4.00;;;;;8.49;58.32;100742.91;2064053;28;46316;-62
2021/12/11 02:32:02;;;;;;;;;4.00;4.00;;;;;8.48;58.44;100742.94;2054833;28;48530;-64
2021/12/11 02:33:16;;;;;;;;;2.00;2.00;;;;;8.49;58.42;100744.69;2056485;28;47296;-63
2021/12/11 02:34:24;;;;;;;;;4.00;2.75;;;;;8.47;58.69;100742.06;2061098;28;47426;-63
2021/12/11 02:35:37;;;;;;;;;1.50;1.50;;;;;8.47;58.47;100747.38;2061304;28;46070;-63
2021/12/11 02:36:54;;;;;;;;;3.00;3.00;;;;;8.47;58.47;100744.72;2064097;28;47815;-63
2021/12/11 02:38:04;;;;;;;;;4.00;4.00;;;;;8.47;58.42;100738.56;2057883;28;47680;-65
2021/12/11 02:39:18;;;;;;;;;3.50;3.50;;;;;8.46;58.38;100747.38;2063965;28;47104;-62
2021/12/11 02:40:24;;;;;;;;;3.75;2.00;;;;;8.46;58.51;100756.19;2059318;28;48024;-62
2021/12/11 02:41:57;;;;;;;;;3.00;3.00;;;;;8.46;58.48;100747.38;2062834;28;47415;-62
2021/12/11 02:43:08;;;;;;;;;4.00;4.00;;;;;8.44;58.40;100752.69;2062671;28;48411;-63
2021/12/11 02:44:16;;;;;;;;;3.25;3.25;;;;;8.45;58.65;100751.81;2061920;28;48112;-62
2021/12/11 02:45:19;;;;;;;;;3.25;2.25;;;;;8.45;58.44;100757.09;2060144;28;48158;-62
2021/12/11 02:46:23;;;;;;;;;3.00;3.00;;;;;8.44;58.38;100762.41;2064195;28;46491;-63
2021/12/11 02:47:37;;;;;;;;;2.50;2.50;;;;;8.45;58.59;100756.22;2064135;28;48174;-62
2021/12/11 02:48:43;;;;;;;;;4.25;2.25;;;;;8.43;58.55;100764.16;2055271;28;47634;-61
2021/12/11 02:50:05;;;;;;;;;2.00;2.00;;;;;8.44;58.65;100765.91;2055764;28;48412;-63
2021/12/11 02:51:09;;;;;;;;;3.75;3.75;;;;;8.43;58.58;100763.31;2063698;28;47036;-61
2021/12/11 02:52:35;;;;;;;;;4.75;4.50;;;;;8.42;58.79;100758.91;2063645;28;47018;-62
2021/12/11 02:53:47;;;;;;;;;5.00;2.50;;;;;8.42;58.61;100761.56;2057736;28;48448;-62
2021/12/11 02:55:06;;;;;;;;;6.75;4.75;;;;;8.41;58.54;100767.72;2060915;28;48580;-62
2021/12/11 02:56:38;;;;;;;;;3.00;3.00;;;;;8.40;58.46;100761.56;2063853;28;46250;-62
2021/12/11 02:57:46;;;;;;;;;3.75;3.75;;;;;8.40;58.74;100766.88;2038345;28;48286;-63
2021/12/11 02:58:51;;;;;;;;;9.25;4.75;;;;;8.41;58.60;100763.31;2058388;28;48487;-63
2021/12/11 02:59:53;;;;;;;;;3.25;2.25;;;;;8.40;58.72;100768.63;2062549;28;47458;-64
2021/12/11 03:01:23;;;;;;;;;3.50;2.00;;;;;8.40;58.77;100774.78;2064116;28;47978;-62
2021/12/11 03:02:29;;;;;;;;;3.25;2.25;;;;;8.40;58.70;100776.56;2063693;28;47293;-63
2021/12/11 03:03:36;;;;;;;;;6.00;3.00;;;;;8.39;58.52;100782.75;2063701;28;48121;-62
2021/12/11 03:04:45;;;;;;;;;3.25;3.25;;;;;8.39;58.72;100788.03;2060098;28;48576;-62
2021/12/11 03:05:59;;;;;;;;;5.75;5.75;;;;;8.37;58.77;100782.75;2063858;28;47028;-62
2021/12/11 03:07:05;;;;;;;;;6.00;6.00;;;;;8.38;58.68;100788.91;2062083;28;46963;-63
2021/12/11 03:08:09;;;;;;;;;7.75;7.75;;;;;8.38;58.75;100791.53;2063115;28;47455;-63
2021/12/11 03:09:14;;;;;;;;;5.75;4.75;;;;;8.38;58.40;100791.53;2062309;28;48597;-63
2021/12/11 03:10:18;;;;;;;;;8.25;7.25;;;;;8.36;58.95;100794.22;2059528;28;46906;-63
2021/12/11 03:11:23;;;;;;;;;8.00;5.00;;;;;8.38;58.99;100796.84;2057909;28;48331;-63
2021/12/11 03:12:25;;;;;;;;;5.50;5.50;;;;;8.37;58.86;100795.09;2063392;28;48287;-63
2021/12/11 03:13:29;;;;;;;;;6.00;4.50;;;;;8.37;58.85;100792.44;2063319;28;47558;-63
2021/12/11 03:14:29;;;;;;;;;9.50;6.50;;;;;8.38;58.68;100796.84;2061031;28;48048;-63
2021/12/11 03:15:31;;;;;;;;;6.00;6.00;;;;;8.38;58.77;100796.84;2063934;28;47562;-63
2021/12/11 03:16:35;;;;;;;;;7.25;7.25;;;;;8.37;58.95;100789.78;2063962;28;47411;-63
2021/12/11 03:17:35;;;;;;;;;5.00;4.00;;;;;8.37;58.71;100798.59;2063547;28;48152;-63
2021/12/11 03:18:36;;;;;;;;;5.00;3.00;;;;;8.37;58.76;100806.53;2063559;28;48140;-64
2021/12/11 03:19:41;;;;;;;;;3.50;3.50;;;;;8.37;58.88;100798.59;2062053;28;48442;-63
2021/12/11 03:20:44;;;;;;;;;4.25;4.25;;;;;8.36;58.83;100802.16;2062434;28;46063;-63
2021/12/11 03:21:47;;;;;;;;;3.00;3.00;;;;;8.37;58.94;100806.53;2063736;28;47341;-63
2021/12/11 03:22:48;;;;;;;;;5.25;3.25;;;;;8.36;58.63;100818.00;2063806;28;47428;-63
2021/12/11 03:23:50;;;;;;;;;4.00;3.00;;;;;8.37;58.76;100821.53;2054420;28;47876;-63
2021/12/11 03:24:50;;;;;;;;;3.00;3.00;;;;;8.36;58.90;100823.28;2054577;28;48072;-62
2021/12/11 03:25:51;;;;;;;;;3.00;3.00;;;;;8.37;58.77;100829.47;2063709;28;48108;-62
2021/12/11 03:26:53;;;;;;;;;3.00;3.00;;;;;8.37;58.77;100829.47;2062248;28;46199;-62
2021/12/11 03:27:55;;;;;;;;;3.00;3.00;;;;;8.36;58.86;100835.66;2063771;28;47274;-62
2021/12/11 03:28:56;;;;;;;;;2.50;1.50;;;;;8.35;58.86;100831.25;2063072;28;47554;-61
2021/12/11 03:29:56;;;;;;;;;0.00;0.00;;;;;8.35;58.83;100841.81;2060562;28;46746;-62
2021/12/11 03:31:00;;;;;;;;;5.67;4.00;;;;;8.36;58.78;100846.22;2063631;28;47957;-64
2021/12/11 03:32:01;;;;;;;;;3.25;3.00;;;;;8.35;58.80;100839.19;2063657;28;47313;-62
2021/12/11 03:33:11;;;;;;;;;3.00;2.75;;;;;8.35;58.88;100842.69;2063199;28;48215;-63
2021/12/11 03:34:17;;;;;;;;;4.00;4.00;;;;;8.35;58.94;100839.19;2061827;28;49335;-63
2021/12/11 03:35:17;;;;;;;;;4.25;2.50;;;;;8.35;58.90;100841.81;2062226;28;47231;-63
2021/12/11 03:36:21;;;;;;;;;4.67;3.00;;;;;8.35;58.82;100833.91;2063567;28;47061;-63
2021/12/11 03:37:22;;;;;;;;;3.50;2.50;;;;;8.32;58.82;100842.72;2063378;28;47696;-63
2021/12/11 03:38:24;;;;;;;;;3.50;3.00;;;;;8.32;58.66;100840.06;2063769;28;46952;-63
2021/12/11 03:39:30;;;;;;;;;2.25;1.25;;;;;8.32;58.97;100842.72;2061454;28;47054;-63
2021/12/11 03:40:31;;;;;;;;;2.00;2.00;;;;;8.32;58.81;100848.00;2061390;28;48286;-63
2021/12/11 03:41:32;;;;;;;;;3.00;3.00;;;;;8.30;59.07;100840.97;2063950;28;47248;-62
2021/12/11 03:42:38;;;;;;;;;3.33;3.33;;;;;8.30;58.79;100844.50;2063704;28;47197;-62
2021/12/11 03:43:38;;;;;;;;;3.00;2.00;;;;;8.29;59.05;100842.75;2059912;28;47124;-63
2021/12/11 03:44:40;;;;;;;;;4.00;2.33;;;;;8.31;58.89;100848.03;2058590;28;46347;-63
2021/12/11 03:45:44;;;;;;;;;3.25;2.50;;;;;8.30;58.90;100846.28;2062451;28;48032;-63
2021/12/11 03:46:48;;;;;;;;;2.00;2.00;;;;;8.29;59.02;100848.03;2063321;28;47067;-63
2021/12/11 03:47:53;;;;;;;;;2.00;2.00;;;;;8.29;59.18;100857.75;2063626;28;47331;-61
2021/12/11 03:49:00;;;;;;;;;3.00;3.00;;;;;8.29;59.41;100865.66;2063405;28;47419;-62
2021/12/11 03:50:03;;;;;;;;;2.00;2.00;;;;;8.29;59.03;100863.03;2061352;28;47540;-63
2021/12/11 03:51:08;;;;;;;;;3.25;3.00;;;;;8.27;58.85;100869.22;2063806;28;47954;-63
2021/12/11 03:52:12;;;;;;;;;2.00;2.00;;;;;8.27;59.03;100863.91;2063300;28;47334;-62
2021/12/11 03:53:14;;;;;;;;;1.25;1.00;;;;;8.28;58.94;100878.00;2062020;28;47927;-62
2021/12/11 03:54:19;;;;;;;;;4.00;4.00;;;;;8.27;59.07;100870.97;2061761;28;47689;-62
2021/12/11 03:55:30;;;;;;;;;5.00;3.75;;;;;8.27;59.15;100871.84;2061224;28;48268;-62
2021/12/11 03:56:30;;;;;;;;;3.00;3.00;;;;;8.28;59.24;100878.00;2062632;28;47494;-62
2021/12/11 03:57:31;;;;;;;;;2.67;2.00;;;;;8.27;59.12;100876.25;2063715;28;47391;-62
2021/12/11 03:58:32;;;;;;;;;3.67;3.67;;;;;8.26;59.11;100875.38;2063546;28;48473;-63
2021/12/11 03:59:32;;;;;;;;;2.67;2.67;;;;;8.26;59.26;100880.69;2060206;28;47071;-63
2021/12/11 04:00:55;;;;;;;;;4.00;3.00;;;;;8.26;59.25;100878.03;2054442;28;47602;-62
2021/12/11 04:02:02;;;;;;;;;2.75;2.50;;;;;8.26;59.12;100882.44;2056093;28;47397;-62
2021/12/11 04:03:06;;;;;;;;;4.50;4.50;;;;;8.26;59.00;100879.81;2063356;28;47252;-63
2021/12/11 04:04:15;;;;;;;;;3.25;2.50;;;;;8.27;59.26;100878.91;2062537;28;47121;-62
2021/12/11 04:05:16;;;;;;;;;3.25;3.25;;;;;8.26;59.13;100871.88;2063105;28;48059;-63
2021/12/11 04:06:18;;;;;;;;;2.33;2.33;;;;;8.25;59.21;100878.03;2062836;28;47602;-63
2021/12/11 04:07:45;;;;;;;;;4.00;4.00;;;;;8.25;59.12;100875.38;2063600;28;46175;-63
2021/12/11 04:08:46;;;;;;;;;3.00;3.00;;;;;8.23;59.20;100872.75;2062643;28;47320;-63
2021/12/11 04:09:47;;;;;;;;;4.75;4.00;;;;;8.23;59.20;100871.88;2061883;28;47562;-62
2021/12/11 04:10:49;;;;;;;;;2.25;2.25;;;;;8.22;59.33;100876.28;2061801;28;48184;-63
2021/12/11 04:11:51;;;;;;;;;5.00;3.25;;;;;8.22;59.28;100872.78;2063282;28;47996;-63
2021/12/11 04:12:59;;;;;;;;;3.25;2.75;;;;;8.21;59.19;100878.94;2063277;28;47187;-63
2021/12/11 04:14:05;;;;;;;;;2.25;2.25;;;;;8.21;59.23;100878.94;2061386;28;47526;-62
2021/12/11 04:15:09;;;;;;;;;2.75;2.75;;;;;8.20;59.28;100883.38;2062086;28;48161;-63
2021/12/11 04:16:10;;;;;;;;;6.25;4.25;;;;;8.20;59.28;100885.13;2063295;28;47956;-63
2021/12/11 04:17:14;;;;;;;;;2.75;2.75;;;;;8.19;59.46;100888.66;2063758;28;48418;-63
2021/12/11 04:18:15;;;;;;;;;3.75;3.75;;;;;8.20;59.29;100882.50;2063344;28;48322;-61
2021/12/11 04:19:16;;;;;;;;;2.00;2.00;;;;;8.20;59.38;100893.94;2061849;28;47071;-61
2021/12/11 04:20:20;;;;;;;;;4.00;4.00;;;;;8.20;59.28;100890.41;2060348;28;47430;-64
2021/12/11 04:21:21;;;;;;;;;5.00;5.00;;;;;8.19;59.48;100894.84;2063520;28;47453;-63
2021/12/11 04:22:22;;;;;;;;;3.75;3.75;;;;;8.20;59.44;100895.72;2062847;28;48056;-64
2021/12/11 04:23:23;;;;;;;;;4.50;3.00;;;;;8.19;59.35;100893.97;2059250;28;47354;-63
2021/12/11 04:24:27;;;;;;;;;3.33;3.33;;;;;8.18;59.57;100893.09;2060259;28;47073;-62
2021/12/11 04:25:28;;;;;;;;;2.75;1.75;;;;;8.18;59.45;100890.44;2063109;28;48410;-62
2021/12/11 04:26:28;;;;;;;;;3.00;3.00;;;;;8.18;59.30;100895.72;2061811;28;47380;-63
2021/12/11 04:27:29;;;;;;;;;2.67;2.67;;;;;8.18;59.55;100887.78;2062972;28;46884;-63
2021/12/11 04:28:33;;;;;;;;;2.67;2.00;;;;;8.18;59.37;100889.56;2063379;28;47279;-62
2021/12/11 04:29:33;;;;;;;;;3.00;3.00;;;;;8.18;59.45;100897.50;2060605;28;48057;-62
2021/12/11 04:30:35;;;;;;;;;2.33;2.33;;;;;8.17;59.45;100904.53;2063260;28;48161;-63
2021/12/11 04:31:40;;;;;;;;;3.00;1.50;;;;;8.17;59.53;100895.75;2063140;28;47700;-63
2021/12/11 04:32:42;;;;;;;;;4.00;3.50;;;;;8.17;59.50;100901.03;2063501;28;47247;-63
2021/12/11 04:33:45;;;;;;;;;2.50;2.50;;;;;8.16;59.45;100907.22;2063381;28;48385;-62
2021/12/11 04:34:46;;;;;;;;;3.00;2.00;;;;;8.16;59.47;100905.44;2061547;28;47114;-61
2021/12/11 04:35:47;;;;;;;;;3.00;3.00;;;;;8.16;59.35;100910.72;2059389;28;47223;-62
2021/12/11 04:37:00;;;;;;;;;2.50;1.50;;;;;8.14;59.49;100904.59;2063289;28;47104;-62
2021/12/11 04:38:06;;;;;;;;;2.75;2.75;;;;;8.15;59.42;100913.38;2051426;28;47485;-61
2021/12/11 04:39:11;;;;;;;;;2.25;2.25;;;;;8.14;59.37;100907.22;2054338;28;48684;-62
2021/12/11 04:40:25;;;;;;;;;2.00;2.00;;;;;8.14;59.37;100909.00;2058930;28;48302;-62
2021/12/11 04:41:37;;;;;;;;;3.25;2.50;;;;;8.13;59.68;100918.69;2063431;28;47227;-63
2021/12/11 04:42:54;;;;;;;;;2.50;2.50;;;;;8.13;59.30;100910.75;2063308;28;46930;-63
2021/12/11 04:43:57;;;;;;;;;3.00;3.00;;;;;8.12;59.40;100916.03;2061705;28;47016;-62
2021/12/11 04:44:58;;;;;;;;;2.75;2.75;;;;;8.11;59.68;100917.81;2060669;28;48358;-62
2021/12/11 04:46:06;;;;;;;;;3.75;2.50;;;;;8.12;59.49;100926.59;2063478;28;47703;-62
2021/12/11 04:47:14;;;;;;;;;3.00;3.00;;;;;8.11;59.54;100923.09;2063315;28;47834;-62
2021/12/11 04:48:56;;;;;;;;;2.00;2.00;;;;;8.11;59.59;100922.22;2063226;28;47529;-62
2021/12/11 04:50:02;;;;;;;;;3.25;3.25;;;;;8.10;59.58;100921.34;2060904;28;47035;-62
2021/12/11 04:51:19;;;;;;;;;2.00;2.00;;;;;8.11;59.65;100922.22;2063108;28;48480;-63
2021/12/11 04:52:33;;;;;;;;;4.67;4.00;;;;;8.11;59.61;100924.84;2062933;28;48276;-63
2021/12/11 04:53:53;;;;;;;;;2.75;2.75;;;;;8.11;59.58;100924.84;2062568;28;48532;-62
2021/12/11 04:55:16;;;;;;;;;2.25;2.00;;;;;8.10;59.71;100938.97;2062474;28;47195;-62
2021/12/11 05:03:31;;;;;;;;;1.25;1.25;;;;;8.07;59.56;100942.50;2063125;28;47047;-63
2021/12/11 05:04:50;;;;;;;;;3.50;3.25;;;;;8.06;59.66;100939.88;2059916;28;46221;-63
2021/12/11 05:06:21;;;;;;;;;2.00;2.00;;;;;8.05;59.83;100939.00;2057991;28;47347;-63
2021/12/11 05:08:58;;;;;;;;;2.00;2.00;;;;;8.05;59.92;100930.22;2063119;28;47774;-63
2021/12/11 05:10:13;;;;;;;;;3.25;3.00;;;;;8.04;59.71;100933.75;2061205;28;47737;-62
2021/12/11 05:11:16;;;;;;;;;2.75;2.75;;;;;8.04;59.87;100926.69;2062442;28;47002;-63
2021/12/11 05:13:17;;;;;;;;;3.00;3.00;;;;;8.04;59.89;100923.16;2063067;28;48169;-63
2021/12/11 05:14:20;;;;;;;;;3.00;3.00;;;;;8.03;59.76;100932.00;2060446;28;47320;-63
2021/12/11 05:15:23;;;;;;;;;5.25;3.75;;;;;8.02;59.86;100933.75;2059279;28;48620;-62
2021/12/11 05:16:24;;;;;;;;;3.50;3.50;;;;;8.02;60.00;100932.88;2063130;28;47288;-62
2021/12/11 05:17:26;;;;;;;;;3.50;3.00;;;;;8.02;59.83;100933.75;2063043;28;47353;-62
2021/12/11 05:18:30;;;;;;;;;3.00;3.00;;;;;8.01;59.91;100926.72;2062685;28;47579;-62
2021/12/11 05:19:30;;;;;;;;;4.25;3.00;;;;;8.02;59.87;100927.59;2059693;28;48125;-63
2021/12/11 05:20:33;;;;;;;;;2.33;2.33;;;;;8.01;59.94;100932.00;2061915;28;47500;-62
2021/12/11 05:21:34;;;;;;;;;2.50;2.00;;;;;8.01;60.20;100942.56;2063227;28;48133;-64
2021/12/11 05:22:36;;;;;;;;;3.25;3.00;;;;;8.02;60.11;100940.81;2062863;28;48468;-61
2021/12/11 05:23:37;;;;;;;;;6.50;3.50;;;;;8.03;59.96;100942.56;2062895;28;48382;-63
2021/12/11 05:24:43;;;;;;;;;3.50;3.00;;;;;8.00;60.20;100940.78;2058983;28;48256;-63
2021/12/11 05:25:45;;;;;;;;;3.25;3.00;;;;;8.02;59.91;100940.81;2063040;28;48191;-62
2021/12/11 05:26:46;;;;;;;;;5.00;3.00;;;;;8.01;59.84;100942.56;2062171;28;48536;-63